AFL1756 UUEE-UHWW

Flight info

Callsign AFL1756
Flight time 7h 32m
Altitude 33000
Route K0906F330 DCT RILPO T753 MIGRI N155 NIPRA T631 URMAN B229 KANAL G483 URAMI P989 KUMIR L870 PTG R809 DINEP R359 LEDIS N992 TORMA A946 IVADA L168 HAB/K0909F340 B355 BG G714 DAGES DCT
Aircraft B77W/H-VGDW/C

Departure

Time 2026-04-13 13:33
Airport Sheremetyevo International Airport (UUEE)

Arrival

Time 2026-04-13 21:05
Airport Vladivostok International Airport (UHWW)
Time Latitude Longitude Altitude Speed Heading
2026-04-13 12:23 55.97899 37.41638 644 ft 0 kts 76°
2026-04-13 13:21 55.97898 37.41634 644 ft 2 kts 76°
2026-04-13 13:21 55.97894 37.41606 648 ft 2 kts 76°
2026-04-13 13:21 55.97890 37.41578 646 ft 2 kts 76°
2026-04-13 13:21 55.97886 37.41550 646 ft 2 kts 76°
2026-04-13 13:22 55.97885 37.41521 644 ft 2 kts 108°
2026-04-13 13:22 55.97891 37.41495 646 ft 2 kts 124°
2026-04-13 13:22 55.97901 37.41473 650 ft 2 kts 158°
2026-04-13 13:22 55.97912 37.41467 646 ft 0 kts 164°
2026-04-13 13:23 55.97901 37.41474 649 ft 3 kts 161°
2026-04-13 13:23 55.97880 37.41485 645 ft 3 kts 164°
2026-04-13 13:23 55.97876 37.41488 654 ft 0 kts 164°
2026-04-13 13:25 55.97850 37.41501 649 ft 5 kts 164°
2026-04-13 13:25 55.97819 37.41515 651 ft 5 kts 165°
2026-04-13 13:25 55.97752 37.41547 646 ft 6 kts 165°
2026-04-13 13:26 55.97712 37.41566 649 ft 6 kts 165°
2026-04-13 13:26 55.97669 37.41586 646 ft 7 kts 165°
2026-04-13 13:26 55.97622 37.41589 648 ft 7 kts 202°
2026-04-13 13:26 55.97590 37.41524 647 ft 7 kts 240°
2026-04-13 13:27 55.97573 37.41438 649 ft 8 kts 251°
2026-04-13 13:27 55.97557 37.41348 645 ft 8 kts 253°
2026-04-13 13:27 55.97542 37.41255 649 ft 8 kts 255°
2026-04-13 13:27 55.97521 37.41114 647 ft 19 kts 255°
2026-04-13 13:28 55.97481 37.40829 648 ft 24 kts 255°
2026-04-13 13:28 55.97437 37.40535 645 ft 24 kts 255°
2026-04-13 13:28 55.97393 37.40241 645 ft 24 kts 255°
2026-04-13 13:28 55.97348 37.39948 648 ft 24 kts 255°
2026-04-13 13:29 55.97305 37.39655 644 ft 24 kts 255°
2026-04-13 13:29 55.97261 37.39362 645 ft 24 kts 255°
2026-04-13 13:29 55.97218 37.39071 644 ft 23 kts 255°
2026-04-13 13:29 55.97178 37.38807 645 ft 19 kts 255°
2026-04-13 13:30 55.97156 37.38675 650 ft 9 kts 245°
2026-04-13 13:30 55.97105 37.38654 647 ft 5 kts 163°
2026-04-13 13:30 55.97075 37.38669 645 ft 4 kts 165°
2026-04-13 13:30 55.97047 37.38683 646 ft 4 kts 165°
2026-04-13 13:31 55.97017 37.38707 649 ft 5 kts 143°
2026-04-13 13:31 55.97005 37.38759 645 ft 5 kts 88°
2026-04-13 13:31 55.97010 37.38844 650 ft 12 kts 81°
2026-04-13 13:31 55.97049 37.39113 646 ft 38 kts 75°
2026-04-13 13:32 55.97178 37.39971 647 ft 104 kts 75°
2026-04-13 13:32 55.97413 37.41553 644 ft 158 kts 75°
2026-04-13 13:32 55.97717 37.43689 735 ft 187 kts 75°
2026-04-13 13:32 55.97986 37.45951 1220 ft 189 kts 75°
2026-04-13 13:33 55.98223 37.48163 2007 ft 177 kts 76°
2026-04-13 13:33 55.98517 37.50288 2461 ft 178 kts 71°
2026-04-13 13:33 55.98867 37.52454 2764 ft 183 kts 71°
2026-04-13 13:33 55.99213 37.54641 3188 ft 185 kts 72°
2026-04-13 13:34 55.99650 37.56789 3458 ft 185 kts 52°
2026-04-13 13:34 56.00699 37.57982 3476 ft 179 kts 12°
2026-04-13 13:34 56.01910 37.58467 3742 ft 185 kts 15°
2026-04-13 13:34 56.03199 37.59099 3907 ft 199 kts 16°
2026-04-13 13:35 56.04592 37.59803 4075 ft 218 kts 16°
2026-04-13 13:35 56.06097 37.60570 4372 ft 231 kts 16°
2026-04-13 13:35 56.07673 37.61380 4762 ft 242 kts 16°
2026-04-13 13:35 56.09307 37.62230 5277 ft 247 kts 16°
2026-04-13 13:36 56.10969 37.63101 5857 ft 252 kts 17°
2026-04-13 13:36 56.12659 37.63992 6489 ft 254 kts 17°
2026-04-13 13:36 56.14356 37.64891 7127 ft 255 kts 17°
2026-04-13 13:36 56.16059 37.65797 7734 ft 257 kts 17°
2026-04-13 13:37 56.17780 37.66716 8322 ft 259 kts 17°
2026-04-13 13:37 56.19520 37.67648 8930 ft 261 kts 17°
2026-04-13 13:37 56.21267 37.68584 9541 ft 263 kts 17°
2026-04-13 13:37 56.23029 37.69531 10149 ft 265 kts 17°
2026-04-13 13:38 56.24837 37.70504 10441 ft 280 kts 17°
2026-04-13 13:38 56.26764 37.71544 10585 ft 299 kts 17°
2026-04-13 13:38 56.28819 37.72654 10750 ft 318 kts 17°
2026-04-13 13:38 56.31000 37.73833 10930 ft 336 kts 17°
2026-04-13 13:39 56.33274 37.75063 11406 ft 345 kts 17°
2026-04-13 13:39 56.35602 37.76323 12032 ft 351 kts 17°
2026-04-13 13:39 56.37917 37.77579 12846 ft 354 kts 17°
2026-04-13 13:39 56.40281 37.78862 13736 ft 355 kts 17°
2026-04-13 13:40 56.42659 37.80155 14536 ft 358 kts 17°
2026-04-13 13:40 56.45067 37.81466 15100 ft 366 kts 17°
2026-04-13 13:40 56.47532 37.82810 15724 ft 372 kts 18°
2026-04-13 13:40 56.50028 37.84174 16396 ft 377 kts 18°
2026-04-13 13:41 56.52561 37.85560 17079 ft 382 kts 18°
2026-04-13 13:41 56.55125 37.86964 17696 ft 388 kts 18°
2026-04-13 13:41 56.57727 37.88392 18350 ft 393 kts 18°
2026-04-13 13:41 56.60365 37.89840 18945 ft 399 kts 18°
2026-04-13 13:42 56.63044 37.91312 19451 ft 405 kts 19°
2026-04-13 13:42 56.65754 37.92823 19975 ft 408 kts 20°
2026-04-13 13:42 56.68366 37.94878 20534 ft 410 kts 31°
2026-04-13 13:42 56.70756 37.97685 21154 ft 410 kts 38°
2026-04-13 13:43 56.72902 38.01101 21747 ft 412 kts 46°
2026-04-13 13:43 56.74935 38.04829 22325 ft 415 kts 46°
2026-04-13 13:43 56.76979 38.08581 22853 ft 419 kts 46°
2026-04-13 13:43 56.79044 38.12348 23425 ft 422 kts 46°
2026-04-13 13:44 56.81110 38.16093 23955 ft 425 kts 46°
2026-04-13 13:44 56.83224 38.19910 24373 ft 429 kts 46°
2026-04-13 13:44 56.85357 38.23761 24748 ft 434 kts 46°
2026-04-13 13:44 56.87530 38.27632 25127 ft 439 kts 44°
2026-04-13 13:45 56.89837 38.31344 25511 ft 444 kts 43°
2026-04-13 13:45 56.92195 38.35018 25897 ft 448 kts 42°
2026-04-13 13:45 56.94584 38.38712 26272 ft 452 kts 42°
2026-04-13 13:45 56.96998 38.42452 26639 ft 456 kts 42°
2026-04-13 13:46 56.99426 38.46232 26995 ft 460 kts 42°
2026-04-13 13:46 57.01866 38.50052 27355 ft 463 kts 43°
2026-04-13 13:46 57.04326 38.53919 27693 ft 467 kts 43°
2026-04-13 13:46 57.06802 38.57824 27976 ft 472 kts 43°
2026-04-13 13:47 57.09307 38.61787 28241 ft 477 kts 43°
2026-04-13 13:47 57.11828 38.65781 28582 ft 480 kts 43°
2026-04-13 13:47 57.14364 38.69808 28937 ft 482 kts 43°
2026-04-13 13:47 57.16911 38.73856 29258 ft 485 kts 43°
2026-04-13 13:48 57.19475 38.77941 29522 ft 489 kts 43°
2026-04-13 13:48 57.22049 38.82050 29786 ft 492 kts 43°
2026-04-13 13:48 57.24641 38.86195 30048 ft 494 kts 43°
2026-04-13 13:48 57.27245 38.90368 30332 ft 496 kts 43°
2026-04-13 13:49 57.29858 38.94560 30633 ft 496 kts 43°
2026-04-13 13:49 57.32423 38.98686 30964 ft 496 kts 43°
2026-04-13 13:49 57.35023 39.02876 31282 ft 495 kts 43°
2026-04-13 13:49 57.37623 39.07073 31591 ft 495 kts 43°
2026-04-13 13:50 57.40216 39.11269 31873 ft 495 kts 43°
2026-04-13 13:50 57.42807 39.15472 32159 ft 495 kts 44°
2026-04-13 13:50 57.44559 39.18317 32339 ft 495 kts 44°
2026-04-13 13:50 57.47150 39.22529 32641 ft 495 kts 44°
2026-04-13 13:51 57.49743 39.26753 32902 ft 495 kts 44°
2026-04-13 13:51 57.52335 39.30976 33123 ft 495 kts 44°
2026-04-13 13:51 57.54927 39.35206 33306 ft 498 kts 44°
2026-04-13 13:52 57.60146 39.43745 33363 ft 499 kts 44°
2026-04-13 13:52 57.65300 39.52213 33361 ft 494 kts 44°
2026-04-13 13:53 57.70446 39.60704 33374 ft 493 kts 44°
2026-04-13 13:53 57.75580 39.69213 33365 ft 493 kts 44°
2026-04-13 13:54 57.80718 39.77764 33377 ft 495 kts 44°
2026-04-13 13:54 57.85875 39.86373 33376 ft 497 kts 44°
2026-04-13 13:55 57.91031 39.95042 33372 ft 498 kts 44°
2026-04-13 13:55 57.96182 40.03779 33360 ft 499 kts 44°
2026-04-13 13:56 58.01335 40.12557 33370 ft 500 kts 44°
2026-04-13 13:56 58.06492 40.21369 33373 ft 500 kts 45°
2026-04-13 13:57 58.11644 40.30211 33372 ft 500 kts 45°
2026-04-13 13:57 58.16793 40.39078 33366 ft 500 kts 45°
2026-04-13 13:58 58.21948 40.47912 33369 ft 499 kts 44°
2026-04-13 13:58 58.27078 40.56680 33369 ft 499 kts 44°
2026-04-13 13:59 58.32222 40.65518 33366 ft 498 kts 44°
2026-04-13 13:59 58.37350 40.74380 33339 ft 498 kts 45°
2026-04-13 14:00 58.42467 40.83263 33363 ft 498 kts 45°
2026-04-13 14:00 58.47582 40.92178 33373 ft 498 kts 45°
2026-04-13 14:01 58.52691 41.01119 33370 ft 498 kts 45°
2026-04-13 14:01 58.57801 41.10098 33367 ft 498 kts 45°
2026-04-13 14:02 58.62909 41.19112 33355 ft 499 kts 45°
2026-04-13 14:02 58.68019 41.28167 33370 ft 500 kts 45°
2026-04-13 14:03 58.73125 41.37280 33365 ft 501 kts 47°
2026-04-13 14:03 58.77334 41.47805 33372 ft 494 kts 63°
2026-04-13 14:04 58.80078 41.59748 33357 ft 489 kts 73°
2026-04-13 14:04 58.82384 41.72121 33365 ft 490 kts 73°
2026-04-13 14:05 58.84705 41.84510 33364 ft 491 kts 73°
2026-04-13 14:05 58.87047 41.96892 33369 ft 491 kts 73°
2026-04-13 14:06 58.89393 42.09291 33357 ft 491 kts 73°
2026-04-13 14:06 58.91728 42.21717 33336 ft 491 kts 73°
2026-04-13 14:07 58.94031 42.34058 33357 ft 491 kts 73°
2026-04-13 14:07 58.96336 42.46495 33363 ft 491 kts 73°
2026-04-13 14:08 58.98637 42.58996 33336 ft 492 kts 74°
2026-04-13 14:08 59.00932 42.71553 33366 ft 496 kts 74°
2026-04-13 14:09 59.03238 42.84247 33355 ft 500 kts 74°
2026-04-13 14:09 59.05548 42.97048 33362 ft 504 kts 74°
2026-04-13 14:10 59.07858 43.09930 33362 ft 506 kts 74°
2026-04-13 14:10 59.10160 43.22857 33355 ft 506 kts 74°
2026-04-13 14:11 59.12448 43.35795 33352 ft 505 kts 74°
2026-04-13 14:11 59.14719 43.48731 33343 ft 503 kts 74°
2026-04-13 14:12 59.16962 43.61598 33339 ft 500 kts 74°
2026-04-13 14:12 59.19181 43.74426 33341 ft 499 kts 74°
2026-04-13 14:13 59.21386 43.87257 33347 ft 498 kts 74°
2026-04-13 14:13 59.23577 44.00101 33318 ft 500 kts 75°
2026-04-13 14:14 59.26893 44.19593 33347 ft 512 kts 73°
2026-04-13 14:14 59.29426 44.32666 33346 ft 515 kts 71°
2026-04-13 14:15 59.32053 44.45732 33341 ft 516 kts 71°
2026-04-13 14:15 59.34618 44.58824 33346 ft 514 kts 71°
2026-04-13 14:16 59.37130 44.71924 33338 ft 512 kts 72°
2026-04-13 14:16 59.39611 44.84987 33320 ft 510 kts 71°
2026-04-13 14:17 59.42074 44.98022 33334 ft 509 kts 71°
2026-04-13 14:17 59.44520 45.11048 33336 ft 508 kts 71°
2026-04-13 14:18 59.46954 45.24093 33330 ft 508 kts 72°
2026-04-13 14:18 59.49374 45.37152 33332 ft 508 kts 72°
2026-04-13 14:19 59.51784 45.50234 33326 ft 508 kts 71°
2026-04-13 14:19 59.54307 45.63277 33317 ft 510 kts 69°
2026-04-13 14:20 59.56920 45.76327 33328 ft 513 kts 69°
2026-04-13 14:20 59.59518 45.89462 33333 ft 515 kts 70°
2026-04-13 14:21 59.62094 46.02691 33322 ft 516 kts 70°
2026-04-13 14:21 59.64653 46.15959 33321 ft 517 kts 70°
2026-04-13 14:22 59.67185 46.29168 33320 ft 516 kts 70°
2026-04-13 14:22 59.69717 46.42461 33317 ft 515 kts 70°
2026-04-13 14:23 59.72232 46.55756 33321 ft 514 kts 70°
2026-04-13 14:23 59.74726 46.69030 33319 ft 513 kts 70°
2026-04-13 14:24 59.77199 46.82285 33320 ft 512 kts 70°
2026-04-13 14:24 59.79653 46.95529 33320 ft 511 kts 70°
2026-04-13 14:25 59.82092 47.08776 33321 ft 510 kts 70°
2026-04-13 14:25 59.84517 47.22023 33320 ft 510 kts 71°
2026-04-13 14:26 59.86933 47.35281 33308 ft 511 kts 70°
2026-04-13 14:26 59.89347 47.48616 33326 ft 512 kts 70°
2026-04-13 14:27 59.91754 47.62015 33320 ft 514 kts 70°
2026-04-13 14:27 59.94151 47.75456 33319 ft 516 kts 70°
2026-04-13 14:28 59.96530 47.88872 33317 ft 516 kts 70°
2026-04-13 14:28 59.98920 48.02401 33328 ft 516 kts 70°
2026-04-13 14:29 60.01296 48.15922 33317 ft 515 kts 70°
2026-04-13 14:29 60.03650 48.29425 33312 ft 514 kts 71°
2026-04-13 14:30 60.05985 48.42926 33312 ft 513 kts 71°
2026-04-13 14:30 60.08303 48.56429 33321 ft 512 kts 71°
2026-04-13 14:31 60.10602 48.69919 33329 ft 511 kts 71°
2026-04-13 14:31 60.12884 48.83404 33317 ft 510 kts 71°
2026-04-13 14:32 60.15144 48.96862 33315 ft 509 kts 71°
2026-04-13 14:32 60.17390 49.10340 33313 ft 508 kts 71°
2026-04-13 14:33 60.19624 49.23830 33318 ft 510 kts 71°
2026-04-13 14:33 60.21729 49.37368 33334 ft 511 kts 72°
2026-04-13 14:34 60.23769 49.51102 33324 ft 512 kts 72°
2026-04-13 14:34 60.25806 49.64851 33320 ft 512 kts 72°
2026-04-13 14:35 60.27841 49.78584 33321 ft 512 kts 72°
2026-04-13 14:35 60.29866 49.92322 33319 ft 511 kts 73°
2026-04-13 14:36 60.31872 50.06050 33331 ft 509 kts 73°
2026-04-13 14:36 60.33855 50.19744 33314 ft 507 kts 73°
2026-04-13 14:37 60.35816 50.33400 33318 ft 505 kts 73°
2026-04-13 14:37 60.37758 50.47029 33311 ft 504 kts 73°
2026-04-13 14:38 60.39359 50.58355 33315 ft 503 kts 73°
2026-04-13 14:38 60.41270 50.71987 33333 ft 503 kts 73°
2026-04-13 14:39 60.43163 50.85596 33310 ft 502 kts 73°
2026-04-13 14:39 60.45040 50.99217 33309 ft 502 kts 73°
2026-04-13 14:40 60.46914 51.12902 33317 ft 504 kts 73°
2026-04-13 14:40 60.48768 51.26629 33309 ft 506 kts 74°
2026-04-13 14:41 60.50611 51.40443 33321 ft 507 kts 74°
2026-04-13 14:41 60.52436 51.54224 33308 ft 506 kts 74°
2026-04-13 14:42 60.54248 51.68009 33301 ft 504 kts 74°
2026-04-13 14:42 60.56054 51.81757 33298 ft 502 kts 74°
2026-04-13 14:43 60.57845 51.95379 33298 ft 501 kts 74°
2026-04-13 14:43 60.59628 52.09070 33315 ft 500 kts 74°
2026-04-13 14:44 60.61393 52.22765 33304 ft 500 kts 74°
2026-04-13 14:44 60.63140 52.36458 33287 ft 499 kts 74°
2026-04-13 14:45 60.64870 52.50146 33285 ft 499 kts 75°
2026-04-13 14:45 60.66587 52.63846 33283 ft 499 kts 75°
2026-04-13 14:46 60.68295 52.77604 33294 ft 502 kts 75°
2026-04-13 14:46 60.70001 52.91469 33304 ft 505 kts 75°
2026-04-13 14:47 60.71691 53.05347 33300 ft 509 kts 75°
2026-04-13 14:47 60.73388 53.19409 33297 ft 510 kts 75°
2026-04-13 14:48 60.75071 53.33504 33293 ft 510 kts 75°
2026-04-13 14:48 60.76737 53.47593 33310 ft 508 kts 75°
2026-04-13 14:49 60.78381 53.61607 33290 ft 504 kts 75°
2026-04-13 14:49 60.80037 53.75499 33289 ft 501 kts 75°
2026-04-13 14:50 60.81706 53.89313 33288 ft 498 kts 75°
2026-04-13 14:50 60.83353 54.03097 33289 ft 498 kts 75°
2026-04-13 14:51 60.84980 54.16910 33312 ft 499 kts 75°
2026-04-13 14:51 60.86597 54.30806 33306 ft 502 kts 75°
2026-04-13 14:52 60.88202 54.44726 33285 ft 505 kts 75°
2026-04-13 14:52 60.89819 54.58894 33275 ft 507 kts 75°
2026-04-13 14:53 60.91415 54.73028 33284 ft 508 kts 76°
2026-04-13 14:53 60.92988 54.87093 33310 ft 508 kts 75°
2026-04-13 14:54 60.94556 55.01263 33283 ft 508 kts 76°
2026-04-13 14:54 60.96108 55.15439 33280 ft 508 kts 76°
2026-04-13 14:55 60.97649 55.29661 33280 ft 508 kts 76°
2026-04-13 14:55 60.99173 55.43881 33276 ft 509 kts 76°
2026-04-13 14:56 61.00683 55.58125 33302 ft 509 kts 76°
2026-04-13 14:56 61.02181 55.72402 33282 ft 509 kts 76°
2026-04-13 14:57 61.03663 55.86689 33278 ft 510 kts 76°
2026-04-13 14:58 61.05858 56.08156 33278 ft 510 kts 76°
2026-04-13 14:58 61.07295 56.22403 33278 ft 510 kts 76°
2026-04-13 14:59 61.08725 56.36749 33282 ft 510 kts 76°
2026-04-13 14:59 61.10141 56.51123 33278 ft 510 kts 77°
2026-04-13 15:00 61.11540 56.65489 33273 ft 509 kts 77°
2026-04-13 15:00 61.12923 56.79852 33279 ft 509 kts 77°
2026-04-13 15:01 61.14289 56.94219 33281 ft 509 kts 77°
2026-04-13 15:01 61.15642 57.08610 33281 ft 510 kts 77°
2026-04-13 15:02 61.17045 57.23003 33279 ft 510 kts 73°
2026-04-13 15:02 61.19105 57.37073 33286 ft 509 kts 70°
2026-04-13 15:03 61.21234 57.50993 33278 ft 511 kts 70°
2026-04-13 15:03 61.23343 57.65094 33281 ft 512 kts 70°
2026-04-13 15:04 61.25415 57.79260 33283 ft 513 kts 70°
2026-04-13 15:04 61.27474 57.93495 33278 ft 514 kts 70°
2026-04-13 15:05 61.29520 58.07755 33276 ft 515 kts 70°
2026-04-13 15:05 61.31555 58.22053 33278 ft 515 kts 70°
2026-04-13 15:06 61.33576 58.36373 33278 ft 515 kts 71°
2026-04-13 15:06 61.35584 58.50729 33273 ft 517 kts 70°
2026-04-13 15:07 61.37569 58.65036 33279 ft 517 kts 70°
2026-04-13 15:07 61.39553 58.79468 33276 ft 518 kts 71°
2026-04-13 15:08 61.41521 58.93917 33263 ft 517 kts 71°
2026-04-13 15:08 61.43470 59.08361 33311 ft 517 kts 71°
2026-04-13 15:09 61.45413 59.22890 33282 ft 520 kts 71°
2026-04-13 15:09 61.47344 59.37456 33266 ft 521 kts 71°
2026-04-13 15:10 61.49265 59.52090 33258 ft 521 kts 71°
2026-04-13 15:10 61.51171 59.66747 33259 ft 521 kts 71°
2026-04-13 15:11 61.53061 59.81417 33265 ft 522 kts 71°
2026-04-13 15:11 61.54926 59.96021 33260 ft 521 kts 71°
2026-04-13 15:12 61.56784 60.10714 33249 ft 521 kts 71°
2026-04-13 15:12 61.58629 60.25433 33249 ft 521 kts 72°
2026-04-13 15:13 61.60457 60.40161 33250 ft 521 kts 72°
2026-04-13 15:13 61.62268 60.54892 33241 ft 522 kts 71°
2026-04-13 15:14 61.64068 60.69682 33240 ft 522 kts 72°
2026-04-13 15:14 61.65850 60.84479 33257 ft 522 kts 72°
2026-04-13 15:15 61.67619 60.99300 33254 ft 522 kts 72°
2026-04-13 15:15 61.69386 61.14135 33267 ft 522 kts 72°
2026-04-13 15:16 61.71157 61.28976 33244 ft 522 kts 72°
2026-04-13 15:16 61.72916 61.43863 33239 ft 522 kts 72°
2026-04-13 15:17 61.74650 61.58728 33237 ft 522 kts 72°
2026-04-13 15:17 61.76357 61.73529 33234 ft 522 kts 72°
2026-04-13 15:18 61.78058 61.88433 33280 ft 522 kts 72°
2026-04-13 15:18 61.79744 62.03366 33240 ft 523 kts 72°
2026-04-13 15:19 61.81417 62.18330 33238 ft 523 kts 72°
2026-04-13 15:19 61.83074 62.33325 33233 ft 524 kts 72°
2026-04-13 15:20 61.84717 62.48361 33234 ft 524 kts 72°
2026-04-13 15:20 61.86345 62.63428 33246 ft 525 kts 72°
2026-04-13 15:21 61.87947 62.78407 33242 ft 525 kts 72°
2026-04-13 15:21 61.89553 62.93606 33233 ft 524 kts 73°
2026-04-13 15:22 61.91121 63.08614 33234 ft 524 kts 73°
2026-04-13 15:22 61.92675 63.23713 33234 ft 524 kts 74°
2026-04-13 15:23 61.93463 63.39187 33237 ft 531 kts 85°
2026-04-13 15:23 61.93579 63.54845 33231 ft 530 kts 85°
2026-04-13 15:24 61.93688 63.70497 33241 ft 530 kts 85°
2026-04-13 15:24 61.93829 63.86122 33235 ft 529 kts 85°
2026-04-13 15:25 61.93970 64.01751 33245 ft 529 kts 85°
2026-04-13 15:25 61.94091 64.17383 33238 ft 530 kts 85°
2026-04-13 15:26 61.94190 64.32951 33229 ft 530 kts 85°
2026-04-13 15:26 61.94271 64.48615 33243 ft 530 kts 85°
2026-04-13 15:27 61.94335 64.64273 33245 ft 530 kts 85°
2026-04-13 15:27 61.94377 64.77281 33251 ft 531 kts 86°
2026-04-13 15:28 61.94314 64.92972 33259 ft 534 kts 90°
2026-04-13 15:28 61.93645 65.08697 33253 ft 534 kts 92°
2026-04-13 15:29 61.92903 65.24390 33256 ft 534 kts 92°
2026-04-13 15:29 61.92174 65.40070 33249 ft 533 kts 92°
2026-04-13 15:30 61.91453 65.55715 33263 ft 533 kts 92°
2026-04-13 15:30 61.90717 65.71375 33300 ft 533 kts 92°
2026-04-13 15:31 61.89961 65.87037 33260 ft 533 kts 92°
2026-04-13 15:31 61.89187 66.02657 33264 ft 532 kts 92°
2026-04-13 15:32 61.88397 66.18240 33270 ft 532 kts 92°
2026-04-13 15:32 61.87589 66.33826 33266 ft 531 kts 93°
2026-04-13 15:33 61.86764 66.49393 33332 ft 531 kts 93°
2026-04-13 15:33 61.85920 66.64958 33280 ft 532 kts 93°
2026-04-13 15:34 61.84629 66.88169 33279 ft 531 kts 93°
2026-04-13 15:34 61.83743 67.03710 33284 ft 531 kts 93°
2026-04-13 15:35 61.82839 67.19216 33287 ft 530 kts 93°
2026-04-13 15:35 61.81919 67.34712 33286 ft 530 kts 94°
2026-04-13 15:36 61.80987 67.50107 33301 ft 531 kts 94°
2026-04-13 15:36 61.80033 67.65584 33302 ft 531 kts 94°
2026-04-13 15:37 61.79059 67.81077 33310 ft 531 kts 94°
2026-04-13 15:37 61.78071 67.96545 33308 ft 531 kts 94°
2026-04-13 15:38 61.77614 68.12048 33356 ft 525 kts 83°
2026-04-13 15:38 61.78380 68.27291 33309 ft 518 kts 73°
2026-04-13 15:39 61.79750 68.42234 33320 ft 518 kts 73°
2026-04-13 15:39 61.81102 68.57205 33319 ft 518 kts 74°
2026-04-13 15:40 61.82401 68.72189 33322 ft 518 kts 74°
2026-04-13 15:40 61.83668 68.87189 33371 ft 518 kts 75°
2026-04-13 15:41 61.84917 69.02211 33326 ft 518 kts 75°
2026-04-13 15:41 61.86143 69.17125 33323 ft 517 kts 75°
2026-04-13 15:42 61.87359 69.32128 33317 ft 516 kts 75°
2026-04-13 15:42 61.88559 69.47127 33328 ft 515 kts 75°
2026-04-13 15:43 61.89741 69.62112 33350 ft 516 kts 75°
2026-04-13 15:43 61.90907 69.77125 33330 ft 515 kts 75°
2026-04-13 15:44 61.92054 69.92115 33337 ft 515 kts 75°
2026-04-13 15:44 61.93184 70.07122 33339 ft 514 kts 75°
2026-04-13 15:45 61.94299 70.22133 33350 ft 514 kts 76°
2026-04-13 15:45 61.95397 70.37149 33349 ft 515 kts 76°
2026-04-13 15:46 61.96477 70.52170 33353 ft 514 kts 76°
2026-04-13 15:46 61.97540 70.67185 33349 ft 513 kts 76°
2026-04-13 15:47 61.98586 70.82189 33357 ft 513 kts 76°
2026-04-13 15:47 61.99619 70.97220 33355 ft 513 kts 76°
2026-04-13 15:48 62.00624 71.12168 33361 ft 514 kts 77°
2026-04-13 15:48 62.01618 71.27221 33357 ft 513 kts 77°
2026-04-13 15:49 62.02599 71.42275 33358 ft 513 kts 77°
2026-04-13 15:49 62.03568 71.57362 33358 ft 513 kts 77°
2026-04-13 15:50 62.04525 71.72428 33404 ft 513 kts 77°
2026-04-13 15:50 62.05469 71.87518 33368 ft 513 kts 77°
2026-04-13 15:51 62.06393 72.02609 33361 ft 512 kts 77°
2026-04-13 15:51 62.07299 72.17675 33360 ft 512 kts 77°
2026-04-13 15:52 62.08183 72.32642 33360 ft 511 kts 78°
2026-04-13 15:52 62.09056 72.47717 33391 ft 511 kts 78°
2026-04-13 15:53 62.09912 72.62790 33366 ft 511 kts 78°
2026-04-13 15:53 62.10750 72.77847 33359 ft 511 kts 78°
2026-04-13 15:54 62.11573 72.92932 33359 ft 511 kts 78°
2026-04-13 15:54 62.12378 73.08007 33359 ft 511 kts 78°
2026-04-13 15:55 62.13168 73.23091 33375 ft 512 kts 78°
2026-04-13 15:55 62.13943 73.38235 33363 ft 512 kts 79°
2026-04-13 15:56 62.14703 73.53394 33349 ft 512 kts 79°
2026-04-13 15:56 62.15441 73.68552 33366 ft 512 kts 79°
2026-04-13 15:57 62.16132 73.83720 33363 ft 513 kts 79°
2026-04-13 15:57 62.16805 73.98921 33363 ft 513 kts 79°
2026-04-13 15:58 62.17462 74.14024 33365 ft 513 kts 79°
2026-04-13 15:58 62.18108 74.29215 33364 ft 512 kts 79°
2026-04-13 15:59 62.18739 74.44406 33366 ft 512 kts 80°
2026-04-13 15:59 62.19161 74.59627 33367 ft 515 kts 85°
2026-04-13 16:00 62.19072 74.74997 33366 ft 516 kts 86°
2026-04-13 16:00 62.18961 74.90363 33373 ft 516 kts 86°
2026-04-13 16:01 62.18870 75.05726 33366 ft 516 kts 86°
2026-04-13 16:01 62.18772 75.21114 33370 ft 516 kts 86°
2026-04-13 16:02 62.18655 75.36486 33413 ft 517 kts 86°
2026-04-13 16:02 62.18538 75.51901 33372 ft 517 kts 86°
2026-04-13 16:03 62.18409 75.67193 33370 ft 516 kts 86°
2026-04-13 16:03 62.18261 75.82547 33369 ft 515 kts 86°
2026-04-13 16:04 62.18096 75.97866 33362 ft 515 kts 86°
2026-04-13 16:04 62.17913 76.13195 33418 ft 515 kts 86°
2026-04-13 16:05 62.17713 76.28521 33368 ft 515 kts 87°
2026-04-13 16:05 62.17496 76.43827 33361 ft 514 kts 87°
2026-04-13 16:06 62.17262 76.59125 33346 ft 514 kts 87°
2026-04-13 16:06 62.17013 76.74393 33360 ft 513 kts 87°
2026-04-13 16:07 62.16747 76.89650 33405 ft 513 kts 87°
2026-04-13 16:07 62.16463 77.04929 33370 ft 514 kts 87°
2026-04-13 16:08 62.16163 77.20196 33359 ft 513 kts 88°
2026-04-13 16:08 62.15844 77.35451 33366 ft 514 kts 88°
2026-04-13 16:09 62.15233 77.50620 33360 ft 515 kts 91°
2026-04-13 16:09 62.14527 77.65872 33401 ft 515 kts 90°
2026-04-13 16:10 62.13872 77.81141 33359 ft 515 kts 90°
2026-04-13 16:10 62.13206 77.96389 33352 ft 515 kts 91°
2026-04-13 16:11 62.12521 78.11603 33355 ft 514 kts 91°
2026-04-13 16:11 62.11820 78.26802 33356 ft 514 kts 91°
2026-04-13 16:12 62.11103 78.41998 33384 ft 514 kts 91°
2026-04-13 16:12 62.10369 78.57178 33349 ft 514 kts 91°
2026-04-13 16:13 62.09623 78.72244 33341 ft 513 kts 91°
2026-04-13 16:13 62.08857 78.87388 33346 ft 512 kts 91°
2026-04-13 16:14 62.08076 79.02499 33337 ft 512 kts 91°
2026-04-13 16:14 62.07415 79.15041 33390 ft 512 kts 92°
2026-04-13 16:15 62.06604 79.30130 33346 ft 512 kts 92°
2026-04-13 16:15 62.05778 79.45191 33338 ft 511 kts 92°
2026-04-13 16:16 62.04935 79.60230 33334 ft 510 kts 92°
2026-04-13 16:16 62.04078 79.75242 33334 ft 510 kts 92°
2026-04-13 16:17 62.03205 79.90236 33384 ft 510 kts 92°
2026-04-13 16:17 62.02317 80.05221 33337 ft 510 kts 93°
2026-04-13 16:18 62.01417 80.20097 33324 ft 509 kts 93°
2026-04-13 16:18 62.00497 80.35043 33333 ft 509 kts 93°
2026-04-13 16:19 61.99561 80.49971 33317 ft 509 kts 93°
2026-04-13 16:19 61.98609 80.64898 33361 ft 509 kts 93°
2026-04-13 16:20 61.97640 80.79836 33325 ft 509 kts 94°
2026-04-13 16:20 61.96655 80.94751 33304 ft 509 kts 94°
2026-04-13 16:21 61.95653 81.09656 33321 ft 509 kts 94°
2026-04-13 16:21 61.94637 81.24542 33322 ft 509 kts 94°
2026-04-13 16:22 61.93610 81.39336 33337 ft 509 kts 94°
2026-04-13 16:23 61.92031 81.61636 33308 ft 509 kts 94°
2026-04-13 16:23 61.90958 81.76486 33299 ft 509 kts 94°
2026-04-13 16:24 61.89871 81.91300 33301 ft 508 kts 94°
2026-04-13 16:24 61.88769 82.06110 33297 ft 508 kts 95°
2026-04-13 16:25 61.87651 82.20889 33297 ft 508 kts 95°
2026-04-13 16:25 61.86515 82.35696 33291 ft 508 kts 95°
2026-04-13 16:26 61.85365 82.50467 33287 ft 509 kts 95°
2026-04-13 16:26 61.84198 82.65252 33288 ft 509 kts 95°
2026-04-13 16:27 61.83024 82.79938 33288 ft 509 kts 95°
2026-04-13 16:27 61.81812 82.94738 33294 ft 510 kts 95°
2026-04-13 16:28 61.80580 83.09502 33289 ft 509 kts 96°
2026-04-13 16:28 61.79337 83.24235 33265 ft 508 kts 96°
2026-04-13 16:29 61.78084 83.38933 33270 ft 508 kts 96°
2026-04-13 16:29 61.76872 83.53603 33266 ft 505 kts 92°
2026-04-13 16:30 61.76554 83.68317 33271 ft 500 kts 85°
2026-04-13 16:30 61.76553 83.83004 33274 ft 500 kts 85°
2026-04-13 16:31 61.76512 83.97592 33268 ft 500 kts 85°
2026-04-13 16:31 61.76427 84.12285 33260 ft 501 kts 86°
2026-04-13 16:32 61.76316 84.27001 33262 ft 501 kts 86°
2026-04-13 16:32 61.76189 84.41723 33256 ft 502 kts 86°
2026-04-13 16:33 61.76048 84.56449 33252 ft 501 kts 86°
2026-04-13 16:33 61.75892 84.71148 33249 ft 501 kts 86°
2026-04-13 16:34 61.75721 84.85869 33247 ft 501 kts 86°
2026-04-13 16:34 61.75534 85.00576 33247 ft 500 kts 87°
2026-04-13 16:35 61.75332 85.15189 33251 ft 501 kts 87°
2026-04-13 16:35 61.75113 85.29881 33238 ft 501 kts 87°
2026-04-13 16:36 61.74879 85.44558 33236 ft 500 kts 87°
2026-04-13 16:36 61.74629 85.59228 33230 ft 500 kts 87°
2026-04-13 16:37 61.74366 85.73827 33272 ft 500 kts 88°
2026-04-13 16:37 61.74085 85.88511 33229 ft 501 kts 88°
2026-04-13 16:38 61.73788 86.03203 33213 ft 500 kts 88°
2026-04-13 16:38 61.73476 86.17850 33218 ft 500 kts 88°
2026-04-13 16:39 61.73148 86.32478 33214 ft 499 kts 88°
2026-04-13 16:39 61.72805 86.47130 33245 ft 499 kts 88°
2026-04-13 16:40 61.72447 86.61750 33215 ft 499 kts 89°
2026-04-13 16:40 61.72073 86.76378 33206 ft 499 kts 89°
2026-04-13 16:41 61.71683 86.90998 33199 ft 499 kts 89°
2026-04-13 16:41 61.71279 87.05611 33198 ft 499 kts 89°
2026-04-13 16:42 61.70860 87.20143 33231 ft 500 kts 89°
2026-04-13 16:42 61.70420 87.34868 33198 ft 500 kts 89°
2026-04-13 16:43 61.69972 87.49426 33182 ft 500 kts 89°
2026-04-13 16:43 61.69506 87.64038 33186 ft 500 kts 89°
2026-04-13 16:44 61.69029 87.78636 33183 ft 499 kts 90°
2026-04-13 16:44 61.68537 87.93252 33203 ft 500 kts 90°
2026-04-13 16:45 61.68029 88.07866 33179 ft 500 kts 90°
2026-04-13 16:45 61.67506 88.22440 33169 ft 500 kts 90°
2026-04-13 16:46 61.66970 88.36935 33168 ft 499 kts 90°
2026-04-13 16:46 61.66416 88.51531 33172 ft 499 kts 90°
2026-04-13 16:47 61.65847 88.66092 33161 ft 500 kts 91°
2026-04-13 16:47 61.65262 88.80661 33153 ft 500 kts 91°
2026-04-13 16:48 61.64663 88.95218 33150 ft 499 kts 91°
2026-04-13 16:48 61.64049 89.09786 33158 ft 499 kts 91°
2026-04-13 16:49 61.63430 89.24332 33151 ft 499 kts 91°
2026-04-13 16:49 61.62798 89.38869 33133 ft 499 kts 91°
2026-04-13 16:50 61.62149 89.53408 33136 ft 499 kts 91°
2026-04-13 16:50 61.61489 89.67847 33141 ft 500 kts 92°
2026-04-13 16:51 61.60809 89.82390 33140 ft 500 kts 92°
2026-04-13 16:51 61.60111 89.96957 33141 ft 501 kts 92°
2026-04-13 16:52 61.58731 90.11356 33140 ft 506 kts 102°
2026-04-13 16:52 61.56832 90.25567 33133 ft 506 kts 102°
2026-04-13 16:53 61.54954 90.39759 33121 ft 505 kts 102°
2026-04-13 16:53 61.53099 90.53967 33124 ft 505 kts 102°
2026-04-13 16:54 61.51235 90.68152 33119 ft 505 kts 102°
2026-04-13 16:54 61.49356 90.82317 33116 ft 505 kts 102°
2026-04-13 16:55 61.47478 90.96367 33109 ft 504 kts 102°
2026-04-13 16:55 61.45596 91.10502 33102 ft 504 kts 102°
2026-04-13 16:56 61.43705 91.24608 33096 ft 503 kts 103°
2026-04-13 16:56 61.41800 91.38693 33094 ft 503 kts 103°
2026-04-13 16:57 61.39878 91.52756 33084 ft 503 kts 103°
2026-04-13 16:57 61.37944 91.66772 33083 ft 503 kts 103°
2026-04-13 16:58 61.35995 91.80783 33075 ft 503 kts 103°
2026-04-13 16:58 61.34032 91.94770 33075 ft 503 kts 103°
2026-04-13 16:59 61.32069 92.08646 33060 ft 503 kts 104°
2026-04-13 16:59 61.30078 92.22600 33074 ft 503 kts 104°
2026-04-13 17:00 61.28070 92.36551 33047 ft 503 kts 104°
2026-04-13 17:00 61.26048 92.50484 33062 ft 503 kts 104°
2026-04-13 17:01 61.24011 92.64399 33049 ft 504 kts 104°
2026-04-13 17:01 61.21960 92.78304 33047 ft 504 kts 104°
2026-04-13 17:02 61.19892 92.92209 33037 ft 504 kts 105°
2026-04-13 17:02 61.17824 93.05994 33015 ft 504 kts 105°
2026-04-13 17:03 61.15729 93.19847 33026 ft 503 kts 105°
2026-04-13 17:03 61.13620 93.33678 33021 ft 503 kts 105°
2026-04-13 17:04 61.11500 93.47479 33034 ft 503 kts 105°
2026-04-13 17:04 61.09363 93.61282 33005 ft 504 kts 106°
2026-04-13 17:05 61.07225 93.74978 33006 ft 504 kts 106°
2026-04-13 17:05 61.05046 93.88823 32992 ft 504 kts 106°
2026-04-13 17:06 61.02876 94.02508 32999 ft 505 kts 106°
2026-04-13 17:06 61.01037 94.14023 33007 ft 505 kts 106°
2026-04-13 17:07 60.98826 94.27772 32990 ft 506 kts 107°
2026-04-13 17:07 60.96614 94.41417 32965 ft 505 kts 107°
2026-04-13 17:08 60.94375 94.55124 32977 ft 505 kts 107°
2026-04-13 17:08 60.92123 94.68808 32973 ft 505 kts 107°
2026-04-13 17:09 60.89859 94.82464 32985 ft 505 kts 108°
2026-04-13 17:09 60.87577 94.96126 32970 ft 506 kts 108°
2026-04-13 17:10 60.85278 95.09783 32966 ft 506 kts 108°
2026-04-13 17:10 60.82966 95.23416 32963 ft 506 kts 108°
2026-04-13 17:11 60.80642 95.37023 32961 ft 506 kts 108°
2026-04-13 17:11 60.78318 95.50526 32971 ft 506 kts 108°
2026-04-13 17:12 60.75969 95.64081 32955 ft 506 kts 109°
2026-04-13 17:12 60.73601 95.77646 32945 ft 506 kts 109°
2026-04-13 17:13 60.71224 95.91176 32944 ft 505 kts 109°
2026-04-13 17:13 60.68828 96.04655 32941 ft 505 kts 109°
2026-04-13 17:14 60.66415 96.18128 32945 ft 505 kts 109°
2026-04-13 17:14 60.64021 96.31503 32930 ft 505 kts 109°
2026-04-13 17:15 60.61590 96.45016 32934 ft 505 kts 109°
2026-04-13 17:15 60.59172 96.58352 32931 ft 505 kts 109°
2026-04-13 17:16 60.56726 96.71750 32932 ft 505 kts 109°
2026-04-13 17:16 60.54262 96.85142 32930 ft 506 kts 110°
2026-04-13 17:17 60.51780 96.98540 32931 ft 507 kts 110°
2026-04-13 17:17 60.49281 97.11935 32923 ft 508 kts 110°
2026-04-13 17:18 60.46767 97.25321 32920 ft 508 kts 110°
2026-04-13 17:18 60.44239 97.38689 32918 ft 508 kts 110°
2026-04-13 17:19 60.41696 97.52049 32920 ft 508 kts 111°
2026-04-13 17:19 60.39141 97.65376 32910 ft 508 kts 111°
2026-04-13 17:20 60.36575 97.78668 32913 ft 508 kts 111°
2026-04-13 17:20 60.34009 97.91874 32908 ft 508 kts 111°
2026-04-13 17:21 60.31415 98.05135 32907 ft 508 kts 111°
2026-04-13 17:21 60.28808 98.18376 32899 ft 508 kts 111°
2026-04-13 17:22 60.26189 98.31592 32897 ft 508 kts 111°
2026-04-13 17:22 60.23554 98.44793 32892 ft 508 kts 112°
2026-04-13 17:23 60.20908 98.57970 32885 ft 508 kts 112°
2026-04-13 17:23 60.18247 98.71133 32894 ft 508 kts 112°
2026-04-13 17:24 60.15571 98.84283 32872 ft 509 kts 112°
2026-04-13 17:24 60.12881 98.97414 32875 ft 509 kts 112°
2026-04-13 17:25 60.10171 99.10562 32868 ft 510 kts 112°
2026-04-13 17:25 60.07449 99.23681 32871 ft 510 kts 112°
2026-04-13 17:26 60.04716 99.36771 32868 ft 510 kts 113°
2026-04-13 17:26 60.01964 99.49870 32862 ft 510 kts 113°
2026-04-13 17:27 59.97813 99.69466 32857 ft 510 kts 113°
2026-04-13 17:27 59.95032 99.82490 32846 ft 510 kts 113°
2026-04-13 17:28 59.92256 99.95416 32848 ft 510 kts 114°
2026-04-13 17:28 59.89432 100.08480 32843 ft 510 kts 114°
2026-04-13 17:29 59.86632 100.21352 32843 ft 510 kts 114°
2026-04-13 17:29 59.83802 100.34281 32838 ft 510 kts 114°
2026-04-13 17:30 59.80955 100.47208 32838 ft 510 kts 114°
2026-04-13 17:30 59.78099 100.60097 32830 ft 510 kts 114°
2026-04-13 17:31 59.75225 100.72987 32831 ft 510 kts 114°
2026-04-13 17:31 59.72362 100.85758 32796 ft 510 kts 115°
2026-04-13 17:32 59.69470 100.98583 32823 ft 510 kts 115°
2026-04-13 17:32 59.66550 101.11414 32824 ft 510 kts 115°
2026-04-13 17:33 59.63604 101.24198 32823 ft 511 kts 115°
2026-04-13 17:33 59.60644 101.36966 32818 ft 511 kts 115°
2026-04-13 17:34 59.56178 101.56113 32812 ft 512 kts 115°
2026-04-13 17:35 59.53188 101.68844 32814 ft 511 kts 116°
2026-04-13 17:35 59.50204 101.81472 32801 ft 511 kts 116°
2026-04-13 17:36 59.47194 101.94135 32808 ft 511 kts 116°
2026-04-13 17:36 59.44172 102.06779 32803 ft 511 kts 116°
2026-04-13 17:37 59.41134 102.19412 32804 ft 511 kts 116°
2026-04-13 17:37 59.38085 102.32018 32793 ft 511 kts 116°
2026-04-13 17:38 59.35029 102.44581 32796 ft 511 kts 116°
2026-04-13 17:38 59.31957 102.57137 32792 ft 511 kts 116°
2026-04-13 17:39 59.28875 102.69662 32793 ft 511 kts 117°
2026-04-13 17:39 59.25781 102.82167 32794 ft 511 kts 117°
2026-04-13 17:40 59.22672 102.94657 32799 ft 511 kts 117°
2026-04-13 17:40 59.19553 103.07121 32800 ft 511 kts 117°
2026-04-13 17:41 59.16416 103.19583 32790 ft 512 kts 117°
2026-04-13 17:41 59.13287 103.31942 32792 ft 512 kts 117°
2026-04-13 17:42 59.10124 103.44372 32786 ft 513 kts 117°
2026-04-13 17:42 59.06947 103.56786 32789 ft 513 kts 118°
2026-04-13 17:43 59.03758 103.69177 32784 ft 513 kts 118°
2026-04-13 17:43 59.00558 103.81569 32783 ft 513 kts 117°
2026-04-13 17:44 58.97999 103.94483 32767 ft 514 kts 107°
2026-04-13 17:44 58.96046 104.07818 32783 ft 514 kts 107°
2026-04-13 17:45 58.94061 104.21146 32776 ft 515 kts 107°
2026-04-13 17:45 58.92029 104.34426 32775 ft 514 kts 107°
2026-04-13 17:46 58.89969 104.47698 32783 ft 515 kts 108°
2026-04-13 17:46 58.87897 104.60941 32773 ft 515 kts 108°
2026-04-13 17:47 58.85816 104.74161 32762 ft 514 kts 108°
2026-04-13 17:47 58.83719 104.87377 32767 ft 514 kts 108°
2026-04-13 17:48 58.81612 105.00561 32771 ft 514 kts 108°
2026-04-13 17:48 58.79490 105.13740 32769 ft 514 kts 108°
2026-04-13 17:49 58.77354 105.26902 32764 ft 514 kts 108°
2026-04-13 17:49 58.75217 105.39975 32760 ft 514 kts 109°
2026-04-13 17:50 58.73058 105.53087 32760 ft 514 kts 109°
2026-04-13 17:50 58.70882 105.66199 32759 ft 514 kts 109°
2026-04-13 17:51 58.68694 105.79294 32751 ft 514 kts 109°
2026-04-13 17:51 58.66492 105.92372 32753 ft 514 kts 109°
2026-04-13 17:52 58.64281 106.05408 32751 ft 514 kts 109°
2026-04-13 17:52 58.62052 106.18457 32750 ft 514 kts 109°
2026-04-13 17:53 58.60190 106.29288 32751 ft 514 kts 109°
2026-04-13 17:53 58.57940 106.42307 32748 ft 514 kts 110°
2026-04-13 17:54 58.55301 106.57501 32748 ft 515 kts 110°
2026-04-13 17:54 58.53418 106.68310 32753 ft 515 kts 110°
2026-04-13 17:55 58.51142 106.81295 32747 ft 515 kts 110°
2026-04-13 17:55 58.48850 106.94269 32747 ft 515 kts 110°
2026-04-13 17:56 58.46543 107.07235 32742 ft 515 kts 110°
2026-04-13 17:56 58.44221 107.20188 32738 ft 515 kts 110°
2026-04-13 17:57 58.41892 107.33100 32753 ft 515 kts 110°
2026-04-13 17:57 58.39561 107.45928 32762 ft 515 kts 110°
2026-04-13 17:58 58.37202 107.58824 32757 ft 515 kts 111°
2026-04-13 17:58 58.34831 107.71702 32758 ft 515 kts 111°
2026-04-13 17:59 58.32444 107.84572 32761 ft 515 kts 111°
2026-04-13 17:59 58.30048 107.97411 32765 ft 515 kts 111°
2026-04-13 18:00 58.27638 108.10234 32772 ft 515 kts 111°
2026-04-13 18:00 58.25217 108.23031 32775 ft 515 kts 111°
2026-04-13 18:01 58.22797 108.35736 32774 ft 515 kts 111°
2026-04-13 18:01 58.20349 108.48509 32774 ft 515 kts 111°
2026-04-13 18:02 58.17875 108.61329 32776 ft 515 kts 112°
2026-04-13 18:02 58.15419 108.73973 32778 ft 515 kts 112°
2026-04-13 18:03 58.12934 108.86687 32769 ft 515 kts 112°
2026-04-13 18:03 58.10434 108.99391 32774 ft 515 kts 112°
2026-04-13 18:04 58.07924 109.12066 32790 ft 515 kts 112°
2026-04-13 18:04 58.05393 109.24764 32788 ft 516 kts 112°
2026-04-13 18:05 58.02854 109.37425 32761 ft 516 kts 112°
2026-04-13 18:05 58.00302 109.50070 32790 ft 516 kts 112°
2026-04-13 18:06 57.97752 109.62621 32793 ft 516 kts 113°
2026-04-13 18:06 57.95175 109.75235 32786 ft 516 kts 113°
2026-04-13 18:07 57.92588 109.87829 32789 ft 516 kts 113°
2026-04-13 18:07 57.89993 110.00436 32786 ft 516 kts 113°
2026-04-13 18:08 57.87398 110.12989 32795 ft 516 kts 113°
2026-04-13 18:08 57.84787 110.25534 32794 ft 516 kts 113°
2026-04-13 18:09 57.82165 110.38052 32799 ft 515 kts 113°
2026-04-13 18:09 57.79543 110.50486 32784 ft 516 kts 113°
2026-04-13 18:10 57.76895 110.62975 32794 ft 515 kts 114°
2026-04-13 18:10 57.74236 110.75435 32801 ft 516 kts 114°
2026-04-13 18:11 57.71562 110.87897 32799 ft 516 kts 114°
2026-04-13 18:11 57.68874 111.00341 32791 ft 516 kts 114°
2026-04-13 18:12 57.66178 111.12758 32821 ft 516 kts 114°
2026-04-13 18:12 57.63476 111.25171 32802 ft 516 kts 114°
2026-04-13 18:13 57.60834 111.37616 32807 ft 516 kts 113°
2026-04-13 18:13 57.58212 111.49976 32819 ft 516 kts 114°
2026-04-13 18:14 57.55547 111.62390 32821 ft 516 kts 114°
2026-04-13 18:14 57.52871 111.74774 32828 ft 516 kts 114°
2026-04-13 18:15 57.50181 111.87152 32825 ft 516 kts 114°
2026-04-13 18:15 57.47485 111.99519 32836 ft 516 kts 114°
2026-04-13 18:16 57.44776 112.11874 32818 ft 516 kts 114°
2026-04-13 18:16 57.42059 112.24197 32827 ft 516 kts 114°
2026-04-13 18:17 57.39328 112.36507 32836 ft 516 kts 114°
2026-04-13 18:17 57.36586 112.48792 32835 ft 516 kts 114°
2026-04-13 18:18 57.33827 112.61083 32838 ft 516 kts 114°
2026-04-13 18:18 57.31078 112.73265 32830 ft 516 kts 115°
2026-04-13 18:19 57.28305 112.85483 32845 ft 516 kts 115°
2026-04-13 18:19 57.25509 112.97709 32865 ft 516 kts 115°
2026-04-13 18:20 57.22697 113.09939 32859 ft 516 kts 115°
2026-04-13 18:20 57.19875 113.22148 32861 ft 517 kts 115°
2026-04-13 18:21 57.17045 113.34325 32867 ft 517 kts 115°
2026-04-13 18:21 57.14200 113.46496 32888 ft 517 kts 115°
2026-04-13 18:22 57.11361 113.58573 32892 ft 517 kts 115°
2026-04-13 18:22 57.08493 113.70713 32894 ft 517 kts 115°
2026-04-13 18:23 57.05614 113.82827 32904 ft 517 kts 115°
2026-04-13 18:23 57.02724 113.94915 32901 ft 517 kts 116°
2026-04-13 18:24 56.99825 114.06981 32902 ft 517 kts 116°
2026-04-13 18:24 56.96913 114.19032 32907 ft 516 kts 116°
2026-04-13 18:25 56.93988 114.31074 32909 ft 517 kts 116°
2026-04-13 18:25 56.91077 114.42995 32939 ft 517 kts 116°
2026-04-13 18:26 56.88128 114.55000 32930 ft 517 kts 116°
2026-04-13 18:26 56.85166 114.67006 32953 ft 518 kts 116°
2026-04-13 18:27 56.82192 114.78980 32938 ft 518 kts 116°
2026-04-13 18:27 56.79198 114.90944 32947 ft 518 kts 116°
2026-04-13 18:28 56.76196 115.02882 32952 ft 518 kts 116°
2026-04-13 18:28 56.73184 115.14802 32965 ft 518 kts 116°
2026-04-13 18:29 56.70156 115.26723 32964 ft 518 kts 117°
2026-04-13 18:29 56.67145 115.38514 32963 ft 517 kts 117°
2026-04-13 18:30 56.64104 115.50359 32968 ft 517 kts 117°
2026-04-13 18:30 56.61051 115.62186 32968 ft 517 kts 117°
2026-04-13 18:31 56.57989 115.73988 32986 ft 517 kts 117°
2026-04-13 18:31 56.54915 115.85771 32977 ft 517 kts 117°
2026-04-13 18:32 56.51830 115.97537 32973 ft 517 kts 117°
2026-04-13 18:32 56.48729 116.09299 32974 ft 518 kts 117°
2026-04-13 18:33 56.45616 116.21049 32972 ft 518 kts 117°
2026-04-13 18:33 56.42492 116.32777 32981 ft 518 kts 117°
2026-04-13 18:34 56.37791 116.50315 33001 ft 517 kts 117°
2026-04-13 18:34 56.34661 116.61917 33044 ft 520 kts 117°
2026-04-13 18:35 56.33055 116.67845 33362 ft 520 kts 117°
2026-04-13 18:35 56.31490 116.73609 33766 ft 518 kts 117°
2026-04-13 18:35 56.29907 116.79427 34128 ft 516 kts 117°
2026-04-13 18:35 56.28326 116.85222 34461 ft 515 kts 117°
2026-04-13 18:36 56.26740 116.91020 34723 ft 516 kts 118°
2026-04-13 18:36 56.25151 116.96808 34918 ft 517 kts 118°
2026-04-13 18:36 56.21949 117.08435 35030 ft 519 kts 118°
2026-04-13 18:37 56.18746 117.20011 35055 ft 516 kts 118°
2026-04-13 18:37 56.15551 117.31499 35069 ft 514 kts 118°
2026-04-13 18:38 56.12354 117.42942 35076 ft 513 kts 118°
2026-04-13 18:38 56.09141 117.54379 35090 ft 514 kts 118°
2026-04-13 18:39 56.05936 117.65738 35099 ft 515 kts 118°
2026-04-13 18:39 56.02683 117.77198 35086 ft 517 kts 118°
2026-04-13 18:40 55.99418 117.88647 35103 ft 518 kts 118°
2026-04-13 18:40 55.96138 118.00094 35104 ft 518 kts 118°
2026-04-13 18:41 55.92845 118.11531 35116 ft 518 kts 118°
2026-04-13 18:41 55.89540 118.22958 35113 ft 518 kts 119°
2026-04-13 18:42 55.86229 118.34349 35116 ft 518 kts 119°
2026-04-13 18:42 55.82908 118.45715 35137 ft 517 kts 119°
2026-04-13 18:43 55.79578 118.57056 35143 ft 517 kts 119°
2026-04-13 18:43 55.76244 118.68362 35151 ft 517 kts 119°
2026-04-13 18:44 55.72898 118.79649 35146 ft 517 kts 119°
2026-04-13 18:44 55.69545 118.90908 35149 ft 516 kts 119°
2026-04-13 18:45 55.66180 119.02151 35156 ft 516 kts 120°
2026-04-13 18:45 55.63379 119.11471 35149 ft 516 kts 120°
2026-04-13 18:46 55.59992 119.22691 35137 ft 516 kts 120°
2026-04-13 18:46 55.56597 119.33883 35144 ft 516 kts 120°
2026-04-13 18:47 55.52639 119.46868 35139 ft 517 kts 120°
2026-04-13 18:47 55.49776 119.56221 35133 ft 517 kts 120°
2026-04-13 18:48 55.46375 119.67284 35121 ft 517 kts 120°
2026-04-13 18:48 55.42942 119.78407 35125 ft 517 kts 120°
2026-04-13 18:49 55.39502 119.89512 35127 ft 517 kts 120°
2026-04-13 18:49 55.36049 120.00607 35130 ft 517 kts 121°
2026-04-13 18:50 55.32587 120.11677 35110 ft 517 kts 121°
2026-04-13 18:50 55.29107 120.22755 35116 ft 518 kts 121°
2026-04-13 18:51 55.25621 120.33800 35110 ft 518 kts 121°
2026-04-13 18:51 55.22120 120.44842 35119 ft 518 kts 121°
2026-04-13 18:52 55.18607 120.55870 35101 ft 519 kts 121°
2026-04-13 18:52 55.15107 120.66808 35113 ft 519 kts 121°
2026-04-13 18:53 55.11568 120.77816 35117 ft 520 kts 121°
2026-04-13 18:53 55.08017 120.88813 35120 ft 520 kts 121°
2026-04-13 18:54 55.04453 120.99798 35097 ft 520 kts 121°
2026-04-13 18:54 55.00875 121.10777 35115 ft 520 kts 121°
2026-04-13 18:55 54.97288 121.21735 35110 ft 521 kts 122°
2026-04-13 18:55 54.93691 121.32674 35117 ft 521 kts 122°
2026-04-13 18:56 54.90082 121.43598 35121 ft 521 kts 122°
2026-04-13 18:56 54.86464 121.54503 35142 ft 521 kts 122°
2026-04-13 18:57 54.82855 121.65329 35138 ft 521 kts 122°
2026-04-13 18:57 54.79212 121.76210 35146 ft 522 kts 122°
2026-04-13 18:58 54.75555 121.87082 35155 ft 523 kts 122°
2026-04-13 18:58 54.71884 121.97950 35160 ft 524 kts 122°
2026-04-13 18:59 54.68189 122.08847 35169 ft 525 kts 122°
2026-04-13 18:59 54.64619 122.19865 35161 ft 527 kts 119°
2026-04-13 19:00 54.61287 122.31144 35167 ft 527 kts 118°
2026-04-13 19:00 54.57935 122.42410 35169 ft 527 kts 119°
2026-04-13 19:01 54.54550 122.53621 35172 ft 528 kts 119°
2026-04-13 19:01 54.51104 122.64800 35155 ft 528 kts 120°
2026-04-13 19:02 54.47660 122.75849 35163 ft 527 kts 120°
2026-04-13 19:02 54.44195 122.86943 35145 ft 527 kts 120°
2026-04-13 19:03 54.40727 122.98015 35151 ft 526 kts 120°
2026-04-13 19:03 54.37245 123.09088 35151 ft 527 kts 120°
2026-04-13 19:04 54.33754 123.20131 35144 ft 527 kts 120°
2026-04-13 19:04 54.30254 123.31153 35143 ft 527 kts 120°
2026-04-13 19:05 54.26743 123.42162 35146 ft 527 kts 120°
2026-04-13 19:05 54.23242 123.53094 35141 ft 527 kts 120°
2026-04-13 19:06 54.19711 123.64067 35146 ft 527 kts 120°
2026-04-13 19:06 54.16168 123.75035 35139 ft 527 kts 120°
2026-04-13 19:07 54.12616 123.85988 35151 ft 527 kts 120°
2026-04-13 19:07 54.09056 123.96916 35151 ft 527 kts 121°
2026-04-13 19:08 54.05489 124.07816 35145 ft 528 kts 121°
2026-04-13 19:08 54.01921 124.18669 35142 ft 528 kts 121°
2026-04-13 19:09 53.98325 124.29558 35149 ft 528 kts 121°
2026-04-13 19:09 53.94716 124.40441 35146 ft 528 kts 121°
2026-04-13 19:10 53.91100 124.51295 35145 ft 528 kts 121°
2026-04-13 19:10 53.87472 124.62140 35136 ft 528 kts 121°
2026-04-13 19:11 53.83837 124.72957 35139 ft 529 kts 121°
2026-04-13 19:11 53.80184 124.83763 35133 ft 529 kts 121°
2026-04-13 19:12 53.76527 124.94539 35134 ft 529 kts 121°
2026-04-13 19:12 53.72853 125.05317 35133 ft 529 kts 121°
2026-04-13 19:13 53.69167 125.16086 35138 ft 529 kts 121°
2026-04-13 19:13 53.65472 125.26835 35136 ft 530 kts 121°
2026-04-13 19:14 53.61765 125.37573 35128 ft 530 kts 121°
2026-04-13 19:14 53.58052 125.48278 35137 ft 529 kts 121°
2026-04-13 19:15 53.54329 125.58969 35134 ft 529 kts 121°
2026-04-13 19:15 53.50600 125.69635 35133 ft 529 kts 121°
2026-04-13 19:16 53.46832 125.80167 35121 ft 528 kts 125°
2026-04-13 19:16 53.42395 125.89939 35123 ft 527 kts 130°
2026-04-13 19:17 53.37814 125.99551 35123 ft 527 kts 130°
2026-04-13 19:17 53.33262 126.09163 35124 ft 528 kts 130°
2026-04-13 19:18 53.28714 126.18810 35110 ft 528 kts 130°
2026-04-13 19:18 53.24157 126.28457 35117 ft 528 kts 130°
2026-04-13 19:19 53.19591 126.38078 35122 ft 529 kts 130°
2026-04-13 19:19 53.15017 126.47674 35115 ft 529 kts 130°
2026-04-13 19:20 53.10431 126.57256 35111 ft 529 kts 130°
2026-04-13 19:20 53.05839 126.66817 35119 ft 529 kts 130°
2026-04-13 19:21 53.01265 126.76301 35117 ft 529 kts 130°
2026-04-13 19:21 52.96655 126.85828 35117 ft 529 kts 130°
2026-04-13 19:22 52.92034 126.95340 35109 ft 529 kts 130°
2026-04-13 19:22 52.87413 127.04819 35121 ft 529 kts 130°
2026-04-13 19:23 52.82785 127.14278 35111 ft 529 kts 130°
2026-04-13 19:23 52.78148 127.23728 35108 ft 529 kts 130°
2026-04-13 19:24 52.73509 127.33153 35119 ft 529 kts 130°
2026-04-13 19:24 52.68895 127.42499 35105 ft 529 kts 130°
2026-04-13 19:25 52.64198 127.51924 35107 ft 528 kts 131°
2026-04-13 19:25 52.59538 127.61178 35095 ft 528 kts 131°
2026-04-13 19:26 52.54843 127.70474 35118 ft 528 kts 131°
2026-04-13 19:26 52.50143 127.79756 35100 ft 528 kts 131°
2026-04-13 19:27 52.45443 127.89010 35092 ft 528 kts 131°
2026-04-13 19:27 52.40720 127.98272 35100 ft 530 kts 131°
2026-04-13 19:28 52.35970 128.07556 35106 ft 533 kts 131°
2026-04-13 19:28 52.31201 128.16842 35099 ft 534 kts 131°
2026-04-13 19:29 52.26417 128.26122 35101 ft 534 kts 131°
2026-04-13 19:29 52.21623 128.35387 35088 ft 534 kts 131°
2026-04-13 19:30 52.16834 128.44609 35094 ft 533 kts 132°
2026-04-13 19:30 52.12039 128.53809 35099 ft 532 kts 132°
2026-04-13 19:31 52.07278 128.62912 35098 ft 531 kts 132°
2026-04-13 19:31 52.02481 128.72048 35097 ft 531 kts 132°
2026-04-13 19:32 51.97679 128.81161 35102 ft 531 kts 132°
2026-04-13 19:32 51.92869 128.90257 35098 ft 531 kts 132°
2026-04-13 19:33 51.88056 128.99326 35092 ft 531 kts 132°
2026-04-13 19:34 51.80820 129.12900 35107 ft 531 kts 132°
2026-04-13 19:34 51.76807 129.20397 35104 ft 531 kts 133°
2026-04-13 19:35 51.71958 129.29425 35109 ft 532 kts 133°
2026-04-13 19:35 51.67108 129.38424 35108 ft 532 kts 133°
2026-04-13 19:36 51.62252 129.47402 35110 ft 532 kts 133°
2026-04-13 19:36 51.57382 129.56372 35110 ft 532 kts 133°
2026-04-13 19:37 51.52508 129.65321 35106 ft 532 kts 133°
2026-04-13 19:37 51.47629 129.74246 35108 ft 532 kts 133°
2026-04-13 19:38 51.42774 129.83096 35113 ft 532 kts 133°
2026-04-13 19:38 51.37881 129.91986 35118 ft 532 kts 133°
2026-04-13 19:39 51.32989 130.00843 35110 ft 531 kts 134°
2026-04-13 19:39 51.28022 130.09599 35122 ft 531 kts 134°
2026-04-13 19:40 51.23001 130.18303 35129 ft 534 kts 135°
2026-04-13 19:40 51.17952 130.27049 35106 ft 537 kts 135°
2026-04-13 19:41 51.12898 130.35806 35123 ft 537 kts 135°
2026-04-13 19:41 51.07843 130.44541 35126 ft 536 kts 135°
2026-04-13 19:42 51.00263 130.57577 35125 ft 534 kts 135°
2026-04-13 19:42 50.95249 130.66162 35125 ft 533 kts 135°
2026-04-13 19:43 50.90200 130.74776 35122 ft 533 kts 135°
2026-04-13 19:43 50.85151 130.83366 35125 ft 532 kts 135°
2026-04-13 19:44 50.80105 130.91917 35120 ft 532 kts 135°
2026-04-13 19:44 50.75048 131.00451 35122 ft 532 kts 135°
2026-04-13 19:45 50.69986 131.08969 35126 ft 532 kts 135°
2026-04-13 19:45 50.64916 131.17472 35121 ft 532 kts 136°
2026-04-13 19:46 50.59830 131.25973 35119 ft 534 kts 136°
2026-04-13 19:46 50.54722 131.34483 35120 ft 535 kts 136°
2026-04-13 19:47 50.49632 131.42935 35123 ft 536 kts 136°
2026-04-13 19:47 50.44497 131.51434 35117 ft 537 kts 136°
2026-04-13 19:48 50.39341 131.59938 35121 ft 538 kts 136°
2026-04-13 19:48 50.34176 131.68427 35124 ft 539 kts 136°
2026-04-13 19:49 50.28996 131.76914 35117 ft 539 kts 136°
2026-04-13 19:49 50.23814 131.85376 35111 ft 538 kts 137°
2026-04-13 19:50 50.18627 131.93819 35079 ft 539 kts 137°
2026-04-13 19:50 50.13428 132.02237 35109 ft 540 kts 137°
2026-04-13 19:51 50.08203 132.10671 35112 ft 542 kts 137°
2026-04-13 19:51 50.03124 132.19387 35118 ft 546 kts 130°
2026-04-13 19:52 49.98920 132.29260 35122 ft 549 kts 123°
2026-04-13 19:52 49.94953 132.39381 35087 ft 548 kts 123°
2026-04-13 19:53 49.90943 132.49441 35108 ft 547 kts 124°
2026-04-13 19:53 49.86910 132.59415 35109 ft 545 kts 124°
2026-04-13 19:54 49.82893 132.69290 35108 ft 544 kts 124°
2026-04-13 19:54 49.78853 132.79197 35091 ft 544 kts 124°
2026-04-13 19:55 49.74809 132.89083 35097 ft 544 kts 124°
2026-04-13 19:55 49.70753 132.98963 35093 ft 545 kts 124°
2026-04-13 19:56 49.66679 133.08847 35085 ft 545 kts 124°
2026-04-13 19:56 49.62593 133.18719 35097 ft 546 kts 124°
2026-04-13 19:57 49.58509 133.28562 35085 ft 544 kts 124°
2026-04-13 19:57 49.54421 133.38377 35072 ft 544 kts 124°
2026-04-13 19:58 49.50327 133.48162 35058 ft 544 kts 124°
2026-04-13 19:58 49.46250 133.57871 35070 ft 544 kts 124°
2026-04-13 19:59 49.42128 133.67658 35070 ft 546 kts 124°
2026-04-13 19:59 49.37997 133.77463 35069 ft 547 kts 124°
2026-04-13 20:00 49.33854 133.87282 35060 ft 549 kts 124°
2026-04-13 20:00 49.29692 133.97110 35061 ft 549 kts 125°
2026-04-13 20:01 49.25520 134.06921 35059 ft 549 kts 125°
2026-04-13 20:01 49.21367 134.16649 35045 ft 550 kts 125°
2026-04-13 20:02 49.17166 134.26453 35050 ft 551 kts 125°
2026-04-13 20:02 49.12958 134.36242 35042 ft 551 kts 125°
2026-04-13 20:03 49.08568 134.45813 35026 ft 549 kts 132°
2026-04-13 20:03 49.03301 134.54136 35040 ft 543 kts 143°
2026-04-13 20:04 48.97629 134.61780 35038 ft 545 kts 142°
2026-04-13 20:04 48.92018 134.69544 35037 ft 546 kts 142°
2026-04-13 20:05 48.86412 134.77318 34998 ft 545 kts 142°
2026-04-13 20:05 48.80790 134.85069 35038 ft 547 kts 142°
2026-04-13 20:06 48.75183 134.92773 35025 ft 548 kts 142°
2026-04-13 20:06 48.69527 135.00523 35029 ft 549 kts 142°
2026-04-13 20:07 48.63865 135.08261 35046 ft 549 kts 142°
2026-04-13 20:07 48.58145 135.15841 35039 ft 541 kts 150°
2026-04-13 20:08 48.54893 135.18505 35029 ft 525 kts 166°
2026-04-13 20:08 48.51437 135.19981 34783 ft 512 kts 178°
2026-04-13 20:08 48.47932 135.20401 34379 ft 500 kts 192°
2026-04-13 20:08 48.44507 135.19818 34170 ft 494 kts 195°
2026-04-13 20:09 48.41080 135.19224 34054 ft 500 kts 194°
2026-04-13 20:09 48.37603 135.18715 34049 ft 502 kts 193°
2026-04-13 20:09 48.30633 135.17819 34029 ft 503 kts 193°
2026-04-13 20:10 48.23665 135.16941 34045 ft 502 kts 193°
2026-04-13 20:10 48.16708 135.16042 34051 ft 501 kts 193°
2026-04-13 20:11 48.09800 135.15142 34055 ft 501 kts 193°
2026-04-13 20:11 48.02856 135.14240 34056 ft 500 kts 193°
2026-04-13 20:12 47.95912 135.13342 34064 ft 501 kts 193°
2026-04-13 20:12 47.88966 135.12440 34078 ft 501 kts 193°
2026-04-13 20:13 47.82025 135.11536 34078 ft 501 kts 193°
2026-04-13 20:13 47.75087 135.10643 34073 ft 500 kts 193°
2026-04-13 20:14 47.68151 135.09760 34091 ft 500 kts 194°
2026-04-13 20:14 47.61211 135.08874 34093 ft 500 kts 194°
2026-04-13 20:15 47.54322 135.07997 34097 ft 500 kts 194°
2026-04-13 20:15 47.47395 135.07117 34096 ft 499 kts 194°
2026-04-13 20:16 47.40474 135.06239 34109 ft 499 kts 194°
2026-04-13 20:16 47.33538 135.05362 34115 ft 500 kts 194°
2026-04-13 20:17 47.26608 135.04488 34113 ft 500 kts 194°
2026-04-13 20:17 47.19670 135.03615 34115 ft 500 kts 194°
2026-04-13 20:18 47.12721 135.02743 34122 ft 501 kts 194°
2026-04-13 20:18 47.05769 135.01873 34128 ft 502 kts 194°
2026-04-13 20:19 46.98812 135.01005 34132 ft 502 kts 194°
2026-04-13 20:19 46.91836 135.00136 34135 ft 502 kts 194°
2026-04-13 20:20 46.84866 134.99270 34137 ft 502 kts 194°
2026-04-13 20:20 46.77914 134.98388 34132 ft 501 kts 194°
2026-04-13 20:21 46.71014 134.97446 34133 ft 501 kts 194°
2026-04-13 20:21 46.64088 134.96494 34122 ft 500 kts 194°
2026-04-13 20:22 46.57166 134.95553 34137 ft 499 kts 194°
2026-04-13 20:22 46.50256 134.94619 34144 ft 499 kts 194°
2026-04-13 20:23 46.43333 134.93688 34136 ft 500 kts 194°
2026-04-13 20:23 46.36407 134.92760 34116 ft 499 kts 194°
2026-04-13 20:24 46.29504 134.91837 34144 ft 498 kts 194°
2026-04-13 20:24 46.22591 134.90913 34149 ft 499 kts 194°
2026-04-13 20:25 46.16798 134.90140 34125 ft 499 kts 194°
2026-04-13 20:25 46.09947 134.89230 34143 ft 497 kts 194°
2026-04-13 20:26 46.03060 134.88316 34152 ft 496 kts 194°
2026-04-13 20:26 45.96199 134.87408 34158 ft 495 kts 194°
2026-04-13 20:27 45.89603 134.85427 34126 ft 475 kts 208°
2026-04-13 20:27 45.83714 134.81585 34165 ft 458 kts 218°
2026-04-13 20:28 45.78189 134.77036 34167 ft 458 kts 219°
2026-04-13 20:28 45.72654 134.72511 34171 ft 458 kts 218°
2026-04-13 20:29 45.67105 134.68025 34138 ft 458 kts 218°
2026-04-13 20:29 45.61544 134.63555 34162 ft 459 kts 218°
2026-04-13 20:30 45.55985 134.59094 34175 ft 459 kts 218°
2026-04-13 20:30 45.50436 134.54659 34149 ft 460 kts 218°
2026-04-13 20:31 45.44846 134.50200 34166 ft 460 kts 218°
2026-04-13 20:31 45.39264 134.45753 34178 ft 460 kts 218°
2026-04-13 20:32 45.33678 134.41315 34180 ft 459 kts 218°
2026-04-13 20:32 45.28102 134.36896 34176 ft 458 kts 218°
2026-04-13 20:33 45.22539 134.32493 34178 ft 457 kts 218°
2026-04-13 20:33 45.16987 134.28110 34170 ft 456 kts 218°
2026-04-13 20:34 45.11443 134.23747 34140 ft 455 kts 218°
2026-04-13 20:34 45.05921 134.19410 34180 ft 455 kts 218°
2026-04-13 20:35 45.00430 134.15099 34178 ft 454 kts 218°
2026-04-13 20:35 44.94899 134.10773 34192 ft 454 kts 218°
2026-04-13 20:36 44.89373 134.06457 34185 ft 454 kts 218°
2026-04-13 20:36 44.83846 134.02151 34191 ft 454 kts 218°
2026-04-13 20:37 44.78360 133.97752 34190 ft 453 kts 219°
2026-04-13 20:37 44.72926 133.93273 34188 ft 452 kts 219°
2026-04-13 20:38 44.67484 133.88802 34195 ft 453 kts 219°
2026-04-13 20:38 44.62032 133.84354 34192 ft 453 kts 219°
2026-04-13 20:39 44.56573 133.79914 34190 ft 453 kts 219°
2026-04-13 20:39 44.51124 133.75499 34198 ft 452 kts 219°
2026-04-13 20:40 44.45677 133.71093 34206 ft 451 kts 219°
2026-04-13 20:40 44.40239 133.66702 34187 ft 451 kts 219°
2026-04-13 20:41 44.34807 133.62323 34168 ft 449 kts 219°
2026-04-13 20:41 44.32112 133.60160 33974 ft 446 kts 219°
2026-04-13 20:41 44.29413 133.57992 33550 ft 449 kts 219°
2026-04-13 20:42 44.26699 133.55809 33089 ft 451 kts 219°
2026-04-13 20:42 44.23986 133.53628 32699 ft 451 kts 219°
2026-04-13 20:42 44.21262 133.51446 32291 ft 452 kts 219°
2026-04-13 20:42 44.18563 133.49285 31862 ft 454 kts 219°
2026-04-13 20:43 44.15824 133.47097 31455 ft 453 kts 219°
2026-04-13 20:43 44.13088 133.44916 31116 ft 452 kts 219°
2026-04-13 20:43 44.10365 133.42745 30781 ft 451 kts 219°
2026-04-13 20:43 44.07643 133.40576 30185 ft 450 kts 219°
2026-04-13 20:44 44.04941 133.38431 29451 ft 445 kts 219°
2026-04-13 20:44 44.02266 133.36306 28798 ft 439 kts 219°
2026-04-13 20:44 43.99625 133.34209 28179 ft 434 kts 219°
2026-04-13 20:44 43.97026 133.32141 27531 ft 428 kts 219°
2026-04-13 20:45 43.94460 133.30101 26956 ft 423 kts 219°
2026-04-13 20:45 43.91931 133.28072 26363 ft 416 kts 221°
2026-04-13 20:45 43.89643 133.25732 25776 ft 402 kts 230°
2026-04-13 20:46 43.85881 133.20242 24596 ft 385 kts 240°
2026-04-13 20:46 43.84372 133.17222 24024 ft 380 kts 243°
2026-04-13 20:46 43.82902 133.14190 23331 ft 378 kts 243°
2026-04-13 20:46 43.81440 133.11175 22741 ft 375 kts 243°
2026-04-13 20:47 43.79988 133.08193 22139 ft 372 kts 242°
2026-04-13 20:47 43.78541 133.05233 21574 ft 369 kts 242°
2026-04-13 20:47 43.77106 133.02307 21005 ft 367 kts 242°
2026-04-13 20:47 43.75692 132.99429 20472 ft 365 kts 242°
2026-04-13 20:48 43.74248 132.96496 19898 ft 364 kts 241°
2026-04-13 20:48 43.72844 132.93650 19345 ft 362 kts 241°
2026-04-13 20:48 43.71432 132.90783 18820 ft 359 kts 241°
2026-04-13 20:48 43.70028 132.87938 18227 ft 358 kts 240°
2026-04-13 20:49 43.68626 132.85108 17659 ft 356 kts 240°
2026-04-13 20:49 43.67234 132.82297 17095 ft 354 kts 240°
2026-04-13 20:49 43.65907 132.79463 16564 ft 348 kts 247°
2026-04-13 20:49 43.65032 132.76391 16039 ft 341 kts 256°
2026-04-13 20:50 43.64324 132.73283 15515 ft 339 kts 256°
2026-04-13 20:50 43.63618 132.70185 14986 ft 338 kts 256°
2026-04-13 20:50 43.62906 132.67102 14482 ft 337 kts 256°
2026-04-13 20:50 43.62186 132.64027 13956 ft 336 kts 256°
2026-04-13 20:51 43.61466 132.60966 13415 ft 335 kts 255°
2026-04-13 20:51 43.60741 132.57924 12857 ft 333 kts 255°
2026-04-13 20:51 43.60013 132.54889 12345 ft 332 kts 255°
2026-04-13 20:51 43.59288 132.51879 11849 ft 330 kts 255°
2026-04-13 20:52 43.58564 132.48880 11337 ft 328 kts 255°
2026-04-13 20:52 43.57848 132.45927 11146 ft 318 kts 255°
2026-04-13 20:52 43.57159 132.43086 10978 ft 307 kts 255°
2026-04-13 20:52 43.56493 132.40348 10854 ft 295 kts 255°
2026-04-13 20:53 43.55852 132.37717 10730 ft 284 kts 255°
2026-04-13 20:53 43.55238 132.35187 10609 ft 274 kts 255°
2026-04-13 20:53 43.54643 132.32744 10509 ft 264 kts 255°
2026-04-13 20:53 43.54068 132.30391 10384 ft 253 kts 255°
2026-04-13 20:54 43.53520 132.28140 10279 ft 243 kts 255°
2026-04-13 20:54 43.53000 132.25995 10163 ft 234 kts 256°
2026-04-13 20:54 43.52476 132.23834 9918 ft 241 kts 255°
2026-04-13 20:54 43.51940 132.21634 9602 ft 242 kts 255°
2026-04-13 20:55 43.51404 132.19444 9332 ft 239 kts 255°
2026-04-13 20:55 43.50878 132.17304 9134 ft 233 kts 255°
2026-04-13 20:55 43.50362 132.15205 8813 ft 231 kts 255°
2026-04-13 20:55 43.49847 132.13108 8427 ft 231 kts 255°
2026-04-13 20:56 43.49333 132.11011 8084 ft 231 kts 255°
2026-04-13 20:56 43.48787 132.08940 7754 ft 231 kts 249°
2026-04-13 20:56 43.48029 132.06966 7374 ft 235 kts 244°
2026-04-13 20:56 43.47215 132.05015 7048 ft 234 kts 244°
2026-04-13 20:57 43.46405 132.03071 6741 ft 233 kts 244°
2026-04-13 20:57 43.45606 132.01131 6428 ft 233 kts 244°
2026-04-13 20:57 43.44808 131.99181 6037 ft 235 kts 244°
2026-04-13 20:57 43.44006 131.97202 5665 ft 237 kts 244°
2026-04-13 20:58 43.43212 131.95243 5566 ft 228 kts 244°
2026-04-13 20:58 43.42432 131.93313 5345 ft 235 kts 244°
2026-04-13 20:58 43.41637 131.91342 5036 ft 235 kts 244°
2026-04-13 20:58 43.40848 131.89403 4757 ft 230 kts 242°
2026-04-13 20:59 43.39718 131.87875 4401 ft 232 kts 207°
2026-04-13 20:59 43.38158 131.87540 4143 ft 229 kts 169°
2026-04-13 20:59 43.36699 131.88311 3925 ft 224 kts 149°
2026-04-13 20:59 43.35358 131.89330 3760 ft 215 kts 148°
2026-04-13 21:00 43.34085 131.90306 3663 ft 213 kts 148°
2026-04-13 21:00 43.32813 131.91335 3543 ft 211 kts 137°
2026-04-13 21:00 43.32029 131.92890 3324 ft 190 kts 96°
2026-04-13 21:00 43.32108 131.94620 3104 ft 177 kts 70°
2026-04-13 21:01 43.32447 131.96222 2900 ft 172 kts 65°
2026-04-13 21:01 43.32884 131.97724 2656 ft 167 kts 62°
2026-04-13 21:01 43.33335 131.99170 2450 ft 163 kts 59°
2026-04-13 21:01 43.33847 132.00549 2220 ft 162 kts 56°
2026-04-13 21:02 43.34388 132.01904 1991 ft 163 kts 56°
2026-04-13 21:02 43.34929 132.03240 1772 ft 154 kts 55°
2026-04-13 21:02 43.35429 132.04471 1536 ft 141 kts 56°
2026-04-13 21:02 43.35900 132.05630 1381 ft 137 kts 56°
2026-04-13 21:03 43.36366 132.06772 1245 ft 137 kts 57°
2026-04-13 21:03 43.36850 132.07954 970 ft 146 kts 58°
2026-04-13 21:03 43.37343 132.09192 753 ft 148 kts 58°
2026-04-13 21:03 43.37845 132.10402 511 ft 148 kts 58°
2026-04-13 21:04 43.38342 132.11635 364 ft 149 kts 59°
2026-04-13 21:04 43.38853 132.12880 152 ft 150 kts 60°
2026-04-13 21:04 43.39347 132.14094 68 ft 133 kts 61°
2026-04-13 21:04 43.39718 132.15028 64 ft 89 kts 61°
2026-04-13 21:05 43.39955 132.15612 62 ft 63 kts 61°
2026-04-13 21:05 43.40116 132.16011 63 ft 40 kts 61°
2026-04-13 21:05 43.40245 132.16326 66 ft 36 kts 60°
2026-04-13 21:05 43.40354 132.16600 62 ft 30 kts 61°
2026-04-13 21:06 43.40427 132.16781 62 ft 19 kts 61°
2026-04-13 21:06 43.40404 132.16882 62 ft 12 kts 155°
2026-04-13 21:06 43.40331 132.16933 67 ft 12 kts 153°
2026-04-13 21:06 43.40258 132.16983 64 ft 12 kts 153°
2026-04-13 21:07 43.40185 132.17035 64 ft 12 kts 152°
2026-04-13 21:07 43.40112 132.17085 69 ft 12 kts 164°
2026-04-13 21:07 43.40046 132.17028 68 ft 12 kts 231°
2026-04-13 21:07 43.40003 132.16929 64 ft 12 kts 241°
2026-04-13 21:08 43.39962 132.16829 64 ft 12 kts 240°
2026-04-13 21:08 43.39922 132.16729 66 ft 12 kts 242°
2026-04-13 21:08 43.39883 132.16630 64 ft 12 kts 242°
2026-04-13 21:08 43.39850 132.16547 64 ft 8 kts 241°
2026-04-13 21:09 43.39811 132.16517 69 ft 7 kts 167°
2026-04-13 21:09 43.39769 132.16544 69 ft 7 kts 151°
2026-04-13 21:09 43.39752 132.16556 72 ft 1 kts 151°
2026-04-13 21:09 43.39749 132.16558 73 ft 0 kts 151°